createdAt,value
2023-03-06T00:02:14.466Z,9.38
2023-03-06T00:08:16.795Z,10.38
2023-03-06T00:14:19.025Z,9.60
2023-03-06T00:20:21.811Z,8.13
2023-03-06T00:26:23.933Z,8.88
2023-03-06T00:32:27.181Z,7.45
2023-03-06T00:38:33.686Z,8.55
2023-03-06T00:44:35.829Z,8.52
2023-03-06T00:50:38.217Z,9.55
2023-03-06T00:56:40.421Z,8.27
2023-03-06T01:08:45.407Z,9.15
2023-03-06T01:14:47.602Z,9.75
2023-03-06T01:20:49.839Z,9.65
2023-03-06T01:26:52.098Z,7.35
2023-03-06T01:32:55.378Z,8.48
2023-03-06T01:38:57.424Z,9.10
2023-03-06T01:45:11.965Z,7.85
2023-03-06T01:51:15.287Z,8.50
2023-03-06T01:57:24.646Z,6.70
2023-03-06T02:03:28.684Z,9.35
2023-03-06T02:09:33.064Z,8.02
2023-03-06T02:15:35.522Z,7.78
2023-03-06T02:21:37.956Z,7.28
2023-03-06T02:27:42.756Z,8.70
2023-03-06T02:33:46.107Z,9.27
2023-03-06T02:39:53.169Z,9.02
2023-03-06T02:45:55.892Z,8.45
2023-03-06T02:58:01.009Z,7.82
2023-03-06T03:04:05.808Z,8.85
2023-03-06T03:10:09.493Z,8.95
2023-03-06T03:16:15.766Z,7.70
2023-03-06T03:22:18.927Z,8.05
2023-03-06T03:28:21.527Z,7.32
2023-03-06T03:34:23.897Z,8.05
2023-03-06T03:40:27.034Z,9.45
2023-03-06T03:46:29.542Z,8.55
2023-03-06T03:52:33.009Z,7.82
2023-03-06T03:58:35.478Z,8.38
2023-03-06T04:04:38.211Z,10.15
2023-03-06T04:10:41.254Z,8.32
2023-03-06T04:16:45.134Z,7.95
2023-03-06T04:22:47.970Z,7.35
2023-03-06T04:28:51.706Z,8.10
2023-03-06T04:34:55.228Z,7.82
2023-03-06T04:40:57.926Z,7.55
2023-03-06T04:47:00.045Z,9.15
2023-03-06T04:53:02.700Z,8.30
2023-03-06T04:59:05.465Z,8.52
2023-03-06T05:05:07.963Z,9.30
2023-03-06T05:11:10.277Z,8.77
2023-03-06T05:17:13.108Z,11.35
2023-03-06T05:23:15.202Z,9.38
2023-03-06T05:29:17.235Z,10.27
2023-03-06T05:35:21.846Z,7.90
2023-03-06T05:41:24.009Z,9.98
2023-03-06T05:47:26.134Z,10.87
2023-03-06T05:53:29.583Z,10.70
2023-03-06T05:59:33.370Z,8.95
2023-03-06T06:05:39.589Z,10.05
2023-03-06T06:11:41.757Z,11.50
2023-03-06T06:17:44.030Z,10.73
2023-03-06T06:23:46.512Z,12.05
2023-03-06T06:29:52.182Z,14.98
2023-03-06T06:35:54.528Z,22.33
2023-03-06T06:42:14.640Z,12.30
2023-03-06T06:48:19.018Z,11.32
2023-03-06T06:54:22.702Z,12.45
2023-03-06T07:00:24.928Z,11.00
2023-03-06T07:06:27.371Z,9.75
2023-03-06T07:12:32.603Z,9.30
2023-03-06T07:18:34.852Z,9.25
2023-03-06T07:24:37.390Z,8.88
2023-03-06T07:30:43.071Z,9.55
2023-03-06T07:36:45.562Z,9.68
2023-03-06T07:42:47.935Z,10.20
2023-03-06T07:48:53.308Z,11.73
2023-03-06T07:54:55.712Z,11.77
2023-03-06T08:00:57.841Z,10.30
2023-03-06T08:07:00.140Z,10.47
2023-03-06T08:13:02.621Z,12.80
2023-03-06T08:19:05.074Z,10.63
2023-03-06T08:25:08.302Z,9.75
2023-03-06T08:31:28.773Z,10.88
2023-03-06T08:37:31.084Z,10.82
2023-03-06T08:43:35.232Z,11.15
2023-03-06T08:49:40.011Z,19.90
2023-03-06T08:55:42.349Z,12.07
2023-03-06T09:01:45.479Z,10.45
2023-03-06T09:07:47.853Z,13.63
2023-03-06T09:13:50.815Z,12.95
2023-03-06T09:19:53.184Z,11.35
2023-03-06T09:25:57.179Z,13.05
2023-03-06T09:31:59.454Z,12.70
2023-03-06T09:38:02.420Z,14.82
2023-03-06T09:44:16.872Z,13.98
2023-03-06T09:50:34.133Z,14.88
2023-03-06T09:56:37.579Z,12.55
2023-03-06T10:02:48.363Z,16.05
2023-03-06T10:08:58.594Z,15.93
2023-03-06T10:15:19.830Z,17.13
2023-03-06T10:21:42.646Z,15.27
2023-03-06T10:28:01.537Z,17.37
2023-03-06T10:34:30.601Z,18.08
2023-03-06T10:40:43.524Z,16.58
2023-03-06T10:46:48.282Z,16.98
2023-03-06T10:53:05.919Z,18.73
2023-03-06T10:59:18.362Z,18.05
2023-03-06T11:05:21.356Z,13.97
2023-03-06T11:11:36.760Z,15.20
2023-03-06T11:18:22.593Z,14.07
2023-03-06T11:24:25.371Z,12.85
2023-03-06T11:30:42.666Z,12.23
2023-03-06T11:36:59.044Z,13.10
2023-03-06T11:43:16.543Z,11.20
2023-03-06T11:49:29.289Z,10.82
2023-03-06T11:55:56.185Z,11.77
2023-03-06T12:02:25.399Z,10.48
2023-03-06T12:08:36.602Z,11.27
2023-03-06T12:14:53.972Z,11.80
2023-03-06T12:21:15.220Z,11.90
2023-03-06T12:27:41.314Z,11.88
2023-03-06T12:34:01.812Z,13.30
2023-03-06T12:40:28.579Z,13.45
2023-03-06T12:46:30.932Z,12.23
2023-03-06T12:52:35.104Z,12.02
2023-03-06T12:58:52.196Z,11.88
2023-03-06T13:04:57.032Z,12.55
2023-03-06T13:11:24.146Z,13.07
2023-03-06T13:17:39.240Z,13.98
2023-03-06T13:23:51.423Z,15.50
2023-03-06T13:30:36.801Z,12.82
2023-03-06T13:36:39.897Z,13.93
2023-03-06T13:42:45.150Z,14.48
2023-03-06T13:49:05.097Z,19.30
2023-03-06T13:55:49.523Z,20.13
2023-03-06T14:08:14.173Z,13.40
2023-03-06T14:14:17.130Z,15.55
2023-03-06T14:20:21.107Z,12.35
2023-03-06T14:26:26.053Z,12.27
2023-03-06T14:32:28.697Z,14.48
2023-03-06T14:38:36.195Z,15.77
2023-03-06T14:44:38.601Z,14.18
2023-03-06T14:50:42.077Z,14.57
2023-03-06T14:56:51.673Z,12.60
2023-03-06T15:02:56.200Z,13.35
2023-03-06T15:09:07.192Z,13.70
2023-03-06T15:15:11.066Z,12.80
2023-03-06T15:21:21.747Z,12.50
2023-03-06T15:27:30.540Z,13.07
2023-03-06T15:33:32.809Z,13.10
2023-03-06T15:39:40.589Z,12.82
2023-03-06T15:45:42.854Z,12.55
2023-03-06T15:51:45.142Z,12.68
2023-03-06T15:58:00.259Z,12.43
2023-03-06T16:04:02.699Z,12.52
2023-03-06T16:10:05.297Z,12.70
2023-03-06T16:16:07.735Z,13.45
2023-03-06T16:22:10.272Z,13.90
2023-03-06T16:28:17.355Z,14.27
2023-03-06T16:34:20.103Z,13.70
2023-03-06T16:46:27.062Z,14.68
2023-03-06T16:52:41.974Z,14.88
2023-03-06T16:58:44.456Z,14.93
2023-03-06T17:04:46.580Z,16.33
2023-03-06T17:10:50.257Z,16.83
2023-03-06T17:16:54.404Z,21.98
2023-03-06T17:22:56.862Z,19.23
2023-03-06T17:28:59.166Z,19.05
2023-03-06T17:35:01.674Z,20.70
2023-03-06T17:41:05.668Z,23.75
2023-03-06T17:47:07.789Z,24.65
2023-03-06T17:53:09.928Z,22.67
2023-03-06T17:59:12.526Z,24.88
2023-03-06T18:11:17.452Z,22.60
2023-03-06T18:17:19.557Z,25.15
2023-03-06T18:23:21.952Z,31.00
2023-03-06T18:35:27.299Z,40.45
2023-03-06T18:41:30.779Z,86.75
2023-03-06T18:47:34.015Z,69.13
2023-03-06T18:53:37.020Z,33.53
2023-03-06T18:59:39.144Z,26.13
2023-03-06T19:05:42.948Z,23.77
2023-03-06T19:11:47.169Z,23.88
2023-03-06T19:17:50.166Z,23.58
2023-03-06T19:23:52.602Z,22.55
2023-03-06T19:29:54.901Z,21.25
2023-03-06T19:35:57.429Z,19.15
2023-03-06T19:42:00.065Z,23.13
2023-03-06T19:48:03.508Z,22.15
2023-03-06T19:54:05.748Z,20.55
2023-03-06T20:00:09.085Z,23.25
2023-03-06T20:06:17.666Z,23.00
2023-03-06T20:12:20.967Z,21.70
2023-03-06T20:18:23.475Z,26.60
2023-03-06T20:24:26.496Z,25.15
2023-03-06T20:30:37.526Z,25.40
2023-03-06T20:36:40.842Z,27.73
2023-03-06T20:42:43.171Z,26.38
2023-03-06T20:54:50.271Z,26.27
2023-03-06T21:06:55.580Z,24.67
2023-03-06T21:12:57.869Z,23.48
2023-03-06T21:19:01.103Z,25.25
2023-03-06T21:25:03.309Z,23.63
2023-03-06T21:31:08.866Z,23.80
2023-03-06T21:37:11.403Z,24.65
2023-03-06T21:43:13.868Z,25.23
2023-03-06T21:49:16.032Z,24.02
2023-03-06T21:55:18.491Z,22.80
2023-03-06T22:01:23.976Z,33.30
2023-03-06T22:07:26.526Z,26.13
2023-03-06T22:13:29.097Z,27.20
2023-03-06T22:19:31.315Z,35.80
2023-03-06T22:25:34.994Z,23.15
2023-03-06T22:31:39.278Z,30.67
2023-03-06T22:37:42.832Z,21.52
2023-03-06T22:43:45.112Z,24.75
2023-03-06T22:49:47.280Z,23.48
2023-03-06T22:55:49.343Z,25.17
2023-03-06T23:01:51.575Z,22.83
2023-03-06T23:07:53.997Z,22.23
2023-03-06T23:13:57.413Z,20.52
2023-03-06T23:20:18.584Z,18.30
2023-03-06T23:26:41.187Z,22.05
2023-03-06T23:32:45.735Z,21.98
2023-03-06T23:38:48.757Z,22.40
2023-03-06T23:50:54.024Z,22.30
2023-03-06T23:56:56.561Z,21.70
